createdAt,value
2022-10-30T00:02:09.664Z,1026.4
2022-10-30T00:08:03.271Z,1026.4
2022-10-30T00:13:22.585Z,1026.5
2022-10-30T00:18:52.447Z,1026.4
2022-10-30T00:24:35.398Z,1026.3
2022-10-30T00:30:14.842Z,1026.4
2022-10-30T00:35:42.746Z,1026.3
2022-10-30T00:41:00.252Z,1026.1
2022-10-30T00:46:50.901Z,1026.3
2022-10-30T00:52:10.656Z,1026.3
2022-10-30T00:57:44.817Z,1026.4
2022-10-30T01:03:34.388Z,1026.3
2022-10-30T01:14:15.614Z,1026.1
2022-10-30T01:19:55.747Z,1026.2
2022-10-30T01:25:28.362Z,1026.1
2022-10-30T01:31:05.827Z,1026.1
2022-10-30T01:36:52.498Z,1026.1
2022-10-30T01:42:09.002Z,1026.1
2022-10-30T01:47:36.282Z,1026.1
2022-10-30T01:53:23.616Z,1026
2022-10-30T01:58:56.480Z,1026
2022-10-30T02:04:14.781Z,1025.9
2022-10-30T02:10:05.007Z,1025.8
2022-10-30T02:15:34.004Z,1025.9
2022-10-30T02:20:57.258Z,1025.9
2022-10-30T02:26:49.301Z,1025.8
2022-10-30T02:32:12.448Z,1025.8
2022-10-30T02:37:52.915Z,1025.7
2022-10-30T02:43:20.358Z,1025.8
2022-10-30T02:48:51.172Z,1025.8
2022-10-30T02:54:11.695Z,1025.8
2022-10-30T03:00:05.000Z,1025.7
2022-10-30T03:05:22.296Z,1025.6
2022-10-30T03:10:51.543Z,1025.5
2022-10-30T03:16:43.362Z,1025.6
2022-10-30T03:21:55.898Z,1025.7
2022-10-30T03:27:27.170Z,1025.6
2022-10-30T03:33:08.541Z,1025.6
2022-10-30T03:38:41.576Z,1025.6
2022-10-30T03:44:29.606Z,1025.7
2022-10-30T03:49:55.342Z,1025.8
2022-10-30T03:55:24.494Z,1025.8
2022-10-30T04:00:58.024Z,1025.9
2022-10-30T04:06:25.256Z,1025.9
2022-10-30T04:12:05.867Z,1025.9
2022-10-30T04:17:35.989Z,1025.9
2022-10-30T04:22:53.894Z,1025.9
2022-10-30T04:28:29.863Z,1025.9
2022-10-30T04:34:11.897Z,1025.8
2022-10-30T04:39:48.995Z,1026
2022-10-30T04:45:15.461Z,1026
2022-10-30T04:51:01.660Z,1026
2022-10-30T04:56:12.994Z,1026
2022-10-30T05:01:45.854Z,1025.9
2022-10-30T05:07:35.032Z,1025.9
2022-10-30T05:13:15.969Z,1025.8
2022-10-30T05:18:26.202Z,1025.7
2022-10-30T05:24:15.106Z,1025.7
2022-10-30T05:29:51.327Z,1025.7
2022-10-30T05:35:15.051Z,1025.6
2022-10-30T05:40:49.432Z,1025.5
2022-10-30T05:46:07.480Z,1025.5
2022-10-30T05:51:52.933Z,1025.6
2022-10-30T05:57:34.234Z,1025.5
2022-10-30T06:03:13.341Z,1025.5
2022-10-30T06:08:42.827Z,1025.6
2022-10-30T06:14:01.335Z,1025.5
2022-10-30T06:19:52.537Z,1025.6
2022-10-30T06:25:22.222Z,1025.6
2022-10-30T06:30:39.694Z,1025.6
2022-10-30T06:36:20.154Z,1025.7
2022-10-30T06:41:48.613Z,1025.7
2022-10-30T06:47:21.576Z,1025.7
2022-10-30T06:52:46.465Z,1025.7
2022-10-30T06:58:14.657Z,1025.7
2022-10-30T07:03:50.212Z,1025.8
2022-10-30T07:09:44.826Z,1025.9
2022-10-30T07:15:13.611Z,1025.9
2022-10-30T07:20:50.490Z,1025.9
2022-10-30T07:26:13.630Z,1025.9
2022-10-30T07:32:02.084Z,1026.1
2022-10-30T07:37:11.893Z,1026.1
2022-10-30T07:42:55.679Z,1026
2022-10-30T07:48:18.861Z,1026
2022-10-30T07:54:11.241Z,1026.1
2022-10-30T07:59:20.594Z,1026.1
2022-10-30T08:05:12.984Z,1026.2
2022-10-30T08:10:41.805Z,1026.2
2022-10-30T08:15:58.277Z,1026.3
2022-10-30T08:21:57.599Z,1026.2
2022-10-30T08:27:20.234Z,1026.1
2022-10-30T08:32:39.736Z,1026.1
2022-10-30T08:38:32.351Z,1026
2022-10-30T08:43:58.948Z,1025.9
2022-10-30T08:49:29.249Z,1025.9
2022-10-30T08:55:13.319Z,1025.9
2022-10-30T09:00:25.628Z,1025.8
2022-10-30T09:05:57.317Z,1025.9
2022-10-30T09:11:51.600Z,1025.9
2022-10-30T09:17:26.685Z,1025.8
2022-10-30T09:22:55.314Z,1025.8
2022-10-30T09:28:37.424Z,1025.7
2022-10-30T09:33:52.265Z,1025.8
2022-10-30T09:39:16.608Z,1025.8
2022-10-30T09:45:23.643Z,1025.7
2022-10-30T09:50:24.184Z,1025.8
2022-10-30T09:56:19.019Z,1025.8
2022-10-30T10:01:44.991Z,1025.8
2022-10-30T10:07:17.282Z,1025.8
2022-10-30T10:12:39.406Z,1025.7
2022-10-30T10:18:18.047Z,1025.7
2022-10-30T10:23:54.162Z,1025.8
2022-10-30T10:29:17.748Z,1025.7
2022-10-30T10:34:58.016Z,1025.7
2022-10-30T10:40:37.322Z,1025.6
2022-10-30T10:46:01.808Z,1025.6
2022-10-30T10:51:53.813Z,1025.5
2022-10-30T10:57:26.614Z,1025.5
2022-10-30T11:02:39.830Z,1025.4
2022-10-30T11:08:15.197Z,1025.5
2022-10-30T11:19:31.165Z,1025.3
2022-10-30T11:25:20.686Z,1025.3
2022-10-30T11:30:48.556Z,1025.1
2022-10-30T11:36:03.529Z,1025
2022-10-30T11:41:40.379Z,1024.9
2022-10-30T11:52:56.563Z,1024.7
2022-10-30T11:58:32.794Z,1024.8
2022-10-30T12:03:56.157Z,1024.6
2022-10-30T12:09:38.741Z,1024.6
2022-10-30T12:15:06.643Z,1024.5
2022-10-30T12:20:49.584Z,1024.4
2022-10-30T12:26:19.673Z,1024.3
2022-10-30T12:32:02.404Z,1024.2
2022-10-30T12:37:24.416Z,1024.1
2022-10-30T12:43:03.658Z,1024
2022-10-30T12:48:25.509Z,1024
2022-10-30T12:54:08.564Z,1023.9
2022-10-30T12:59:57.077Z,1023.9
2022-10-30T13:05:36.863Z,1023.8
2022-10-30T13:11:00.480Z,1023.8
2022-10-30T13:16:23.774Z,1023.6
2022-10-30T13:22:19.043Z,1023.4
2022-10-30T13:27:59.324Z,1022.9
2022-10-30T13:33:21.716Z,1022.5
2022-10-30T13:39:09.805Z,1022.5
2022-10-30T13:44:31.604Z,1022.3
2022-10-30T13:50:24.406Z,1022.3
2022-10-30T13:55:46.639Z,1022.2
2022-10-30T14:01:11.179Z,1022.2
2022-10-30T14:06:47.604Z,1022.1
2022-10-30T14:12:28.920Z,1022.1
2022-10-30T14:18:20.719Z,1021.9
2022-10-30T14:23:31.254Z,1021.8
2022-10-30T14:29:05.646Z,1022.1
2022-10-30T14:34:49.441Z,1022.2
2022-10-30T14:40:36.166Z,1022.2
2022-10-30T14:46:11.795Z,1022.3
2022-10-30T14:51:30.561Z,1022.3
2022-10-30T14:57:21.182Z,1022.3
2022-10-30T15:02:49.480Z,1022.2
2022-10-30T15:08:20.356Z,1022.4
2022-10-30T15:13:43.044Z,1022.4
2022-10-30T15:19:36.469Z,1022.6
2022-10-30T15:25:02.508Z,1022.6
2022-10-30T15:30:28.416Z,1022.6
2022-10-30T15:35:52.677Z,1023
2022-10-30T15:41:34.368Z,1023.3
2022-10-30T15:47:19.810Z,1023.5
2022-10-30T15:52:45.436Z,1023.5
2022-10-30T15:58:31.038Z,1023.5
2022-10-30T16:03:53.414Z,1023.6
2022-10-30T16:09:24.589Z,1023.7
2022-10-30T16:14:53.200Z,1023.7
2022-10-30T16:20:26.275Z,1023.7
2022-10-30T16:26:02.358Z,1023.8
2022-10-30T16:31:55.125Z,1024
2022-10-30T16:37:28.994Z,1024
2022-10-30T16:42:41.951Z,1024
2022-10-30T16:48:27.048Z,1024.1
2022-10-30T16:53:54.638Z,1024.2
2022-10-30T16:59:36.420Z,1024.3
2022-10-30T17:05:13.619Z,1024.3
2022-10-30T17:10:28.133Z,1024.3
2022-10-30T17:16:20.183Z,1024.4
2022-10-30T17:21:26.474Z,1024.4
2022-10-30T17:27:10.673Z,1024.5
2022-10-30T17:32:59.182Z,1024.5
2022-10-30T17:38:09.077Z,1024.6
2022-10-30T17:43:42.596Z,1024.7
2022-10-30T17:49:25.141Z,1024.8
2022-10-30T17:55:00.235Z,1024.9
2022-10-30T18:00:28.289Z,1024.9
2022-10-30T18:06:03.394Z,1025
2022-10-30T18:11:26.149Z,1025.1
2022-10-30T18:17:18.142Z,1025.1
2022-10-30T18:22:51.659Z,1025.2
2022-10-30T18:28:15.290Z,1025.3
2022-10-30T18:33:51.121Z,1025.4
2022-10-30T18:39:25.602Z,1025.4
2022-10-30T18:44:49.190Z,1025.4
2022-10-30T18:50:23.076Z,1025.4
2022-10-30T18:55:50.274Z,1025.4
2022-10-30T19:01:49.222Z,1025.4
2022-10-30T19:07:09.908Z,1025.5
2022-10-30T19:12:57.601Z,1025.6
2022-10-30T19:18:03.612Z,1025.6
2022-10-30T19:23:43.809Z,1025.6
2022-10-30T19:29:34.448Z,1025.6
2022-10-30T19:34:40.805Z,1025.7
2022-10-30T19:40:38.081Z,1025.7
2022-10-30T19:46:12.851Z,1025.7
2022-10-30T19:51:37.364Z,1025.7
2022-10-30T19:57:04.533Z,1025.8
2022-10-30T20:02:36.320Z,1025.7
2022-10-30T20:08:27.441Z,1025.7
2022-10-30T20:13:52.114Z,1025.7
2022-10-30T20:19:30.365Z,1025.8
2022-10-30T20:24:38.845Z,1025.9
2022-10-30T20:30:35.075Z,1025.9
2022-10-30T20:35:47.852Z,1025.9
2022-10-30T20:41:30.170Z,1026
2022-10-30T20:46:54.040Z,1026
2022-10-30T20:52:33.843Z,1026.1
2022-10-30T20:58:17.465Z,1026.1
2022-10-30T21:03:29.711Z,1026.2
2022-10-30T21:09:29.436Z,1026.2
2022-10-30T21:14:55.395Z,1026.1
2022-10-30T21:20:30.475Z,1026.2
2022-10-30T21:26:08.825Z,1026.3
2022-10-30T21:31:20.598Z,1026.2
2022-10-30T21:37:03.835Z,1026.2
2022-10-30T21:48:06.545Z,1026.2
2022-10-30T21:53:49.255Z,1026.1
2022-10-30T21:59:02.287Z,1026.2
2022-10-30T22:04:42.585Z,1026.2
2022-10-30T22:10:26.642Z,1026.2
2022-10-30T22:15:50.510Z,1026.3
2022-10-30T22:21:15.779Z,1026.3
2022-10-30T22:27:05.892Z,1026.2
2022-10-30T22:32:39.768Z,1026.2
2022-10-30T22:37:57.202Z,1026.3
2022-10-30T22:43:47.237Z,1026.2
2022-10-30T22:48:56.632Z,1026.2
2022-10-30T22:54:50.694Z,1026.2
2022-10-30T23:00:16.649Z,1026.3
2022-10-30T23:05:34.093Z,1026.3
2022-10-30T23:11:18.756Z,1026.3
2022-10-30T23:16:47.116Z,1026.4
2022-10-30T23:22:22.693Z,1026.3
2022-10-30T23:27:46.187Z,1026.3
2022-10-30T23:33:25.907Z,1026.2
2022-10-30T23:39:12.695Z,1026.2
2022-10-30T23:44:35.604Z,1026.1
2022-10-30T23:50:08.019Z,1026
2022-10-30T23:55:55.330Z,1026.1
